sensor_id;sensor_type;location;lat;lon;timestamp;pressure;altitude;pressure_sealevel;temperature;humidity
45927;BME280;31639;47.614;19.684;2022-07-17T00:03:16;100869.34;;;18.67;40.41
45927;BME280;31639;47.614;19.684;2022-07-17T00:08:17;100867.47;;;18.62;40.44
45927;BME280;31639;47.614;19.684;2022-07-17T00:13:18;100863.72;;;18.64;40.52
45927;BME280;31639;47.614;19.684;2022-07-17T00:18:19;100868.53;;;18.67;40.63
45927;BME280;31639;47.614;19.684;2022-07-17T00:23:19;100870.94;;;18.73;40.38
45927;BME280;31639;47.614;19.684;2022-07-17T00:28:20;100871.75;;;18.69;40.34
45927;BME280;31639;47.614;19.684;2022-07-17T00:33:20;100873.06;;;18.56;40.59
45927;BME280;31639;47.614;19.684;2022-07-17T00:38:20;100882.13;;;18.34;40.81
45927;BME280;31639;47.614;19.684;2022-07-17T00:43:21;100889.50;;;18.01;41.22
45927;BME280;31639;47.614;19.684;2022-07-17T00:48:22;100898.97;;;17.76;41.82
45927;BME280;31639;47.614;19.684;2022-07-17T00:53:23;100905.91;;;17.72;42.12
45927;BME280;31639;47.614;19.684;2022-07-17T00:58:25;100901.50;;;17.50;42.65
45927;BME280;31639;47.614;19.684;2022-07-17T01:03:25;100896.00;;;17.24;42.67
45927;BME280;31639;47.614;19.684;2022-07-17T01:08:26;100890.13;;;16.62;43.68
45927;BME280;31639;47.614;19.684;2022-07-17T01:13:27;100906.25;;;16.23;44.95
45927;BME280;31639;47.614;19.684;2022-07-17T01:18:28;100903.72;;;15.89;46.53
45927;BME280;31639;47.614;19.684;2022-07-17T01:23:28;100910.59;;;15.51;48.07
45927;BME280;31639;47.614;19.684;2022-07-17T01:28:28;100920.75;;;15.37;48.57
45927;BME280;31639;47.614;19.684;2022-07-17T01:33:30;100919.31;;;15.29;48.80
45927;BME280;31639;47.614;19.684;2022-07-17T01:38:31;100922.06;;;15.34;48.67
45927;BME280;31639;47.614;19.684;2022-07-17T01:43:31;100932.88;;;15.27;49.09
45927;BME280;31639;47.614;19.684;2022-07-17T01:48:32;100930.59;;;15.36;48.72
45927;BME280;31639;47.614;19.684;2022-07-17T01:53:32;100927.66;;;15.72;47.84
45927;BME280;31639;47.614;19.684;2022-07-17T01:58:33;100924.78;;;16.13;46.65
45927;BME280;31639;47.614;19.684;2022-07-17T02:03:34;100938.75;;;16.25;46.11
45927;BME280;31639;47.614;19.684;2022-07-17T02:08:34;100928.09;;;16.25;46.20
45927;BME280;31639;47.614;19.684;2022-07-17T02:13:35;100928.53;;;16.17;46.10
45927;BME280;31639;47.614;19.684;2022-07-17T02:18:35;100933.53;;;16.13;46.28
45927;BME280;31639;47.614;19.684;2022-07-17T02:23:35;100938.00;;;16.08;46.34
45927;BME280;31639;47.614;19.684;2022-07-17T02:28:37;100943.41;;;16.13;46.18
45927;BME280;31639;47.614;19.684;2022-07-17T02:33:37;100945.13;;;16.02;46.33
45927;BME280;31639;47.614;19.684;2022-07-17T02:38:38;100946.84;;;15.91;46.62
45927;BME280;31639;47.614;19.684;2022-07-17T02:43:38;100951.19;;;15.80;47.03
45927;BME280;31639;47.614;19.684;2022-07-17T02:48:40;100946.41;;;15.60;47.42
45927;BME280;31639;47.614;19.684;2022-07-17T02:53:40;100956.88;;;15.33;48.02
45927;BME280;31639;47.614;19.684;2022-07-17T02:58:41;100957.31;;;14.95;48.39
45927;BME280;31639;47.614;19.684;2022-07-17T03:03:41;100971.78;;;14.47;48.86
45927;BME280;31639;47.614;19.684;2022-07-17T03:08:42;100987.44;;;14.07;49.61
45927;BME280;31639;47.614;19.684;2022-07-17T03:13:42;100988.38;;;13.89;50.20
45927;BME280;31639;47.614;19.684;2022-07-17T03:18:42;100987.59;;;13.77;50.39
45927;BME280;31639;47.614;19.684;2022-07-17T03:23:43;100993.34;;;13.74;50.90
45927;BME280;31639;47.614;19.684;2022-07-17T03:28:44;101000.94;;;13.82;51.47
45927;BME280;31639;47.614;19.684;2022-07-17T03:33:44;101015.50;;;14.03;51.47
45927;BME280;31639;47.614;19.684;2022-07-17T03:38:44;101022.19;;;14.18;51.32
45927;BME280;31639;47.614;19.684;2022-07-17T03:43:45;101032.22;;;14.28;50.90
45927;BME280;31639;47.614;19.684;2022-07-17T03:48:45;101025.16;;;14.33;51.15
45927;BME280;31639;47.614;19.684;2022-07-17T03:53:45;101012.91;;;14.32;51.47
45927;BME280;31639;47.614;19.684;2022-07-17T03:58:46;101028.84;;;14.44;51.74
45927;BME280;31639;47.614;19.684;2022-07-17T04:03:46;101037.78;;;14.67;51.67
45927;BME280;31639;47.614;19.684;2022-07-17T04:08:47;101051.25;;;14.89;51.34
45927;BME280;31639;47.614;19.684;2022-07-17T04:13:48;101055.56;;;15.07;51.14
45927;BME280;31639;47.614;19.684;2022-07-17T04:18:48;101053.53;;;15.26;51.19
45927;BME280;31639;47.614;19.684;2022-07-17T04:23:49;101063.50;;;15.65;50.95
45927;BME280;31639;47.614;19.684;2022-07-17T04:28:49;101066.81;;;16.07;50.16
45927;BME280;31639;47.614;19.684;2022-07-17T04:33:49;101056.59;;;16.38;49.43
45927;BME280;31639;47.614;19.684;2022-07-17T04:38:52;101062.75;;;16.60;48.79
45927;BME280;31639;47.614;19.684;2022-07-17T04:43:53;101065.16;;;16.84;47.68
45927;BME280;31639;47.614;19.684;2022-07-17T04:48:53;101072.97;;;17.13;46.79
45927;BME280;31639;47.614;19.684;2022-07-17T04:53:54;101083.84;;;17.34;46.26
45927;BME280;31639;47.614;19.684;2022-07-17T04:58:54;101092.88;;;17.60;45.69
45927;BME280;31639;47.614;19.684;2022-07-17T05:03:55;101097.16;;;17.94;44.87
45927;BME280;31639;47.614;19.684;2022-07-17T05:08:55;101097.88;;;18.16;43.93
45927;BME280;31639;47.614;19.684;2022-07-17T05:13:56;101099.63;;;18.43;43.33
45927;BME280;31639;47.614;19.684;2022-07-17T05:18:56;101102.63;;;18.62;42.70
45927;BME280;31639;47.614;19.684;2022-07-17T05:23:57;101100.81;;;18.73;41.78
45927;BME280;31639;47.614;19.684;2022-07-17T05:28:58;101103.56;;;18.89;41.15
45927;BME280;31639;47.614;19.684;2022-07-17T05:33:58;101109.50;;;18.96;40.55
45927;BME280;31639;47.614;19.684;2022-07-17T05:38:58;101118.34;;;19.07;39.85
45927;BME280;31639;47.614;19.684;2022-07-17T05:43:59;101116.81;;;19.32;39.75
45927;BME280;31639;47.614;19.684;2022-07-17T05:48:59;101117.09;;;19.41;38.95
45927;BME280;31639;47.614;19.684;2022-07-17T05:54:00;101126.50;;;19.54;38.64
45927;BME280;31639;47.614;19.684;2022-07-17T05:59:00;101132.91;;;19.78;38.19
45927;BME280;31639;47.614;19.684;2022-07-17T06:04:00;101134.28;;;19.91;37.76
45927;BME280;31639;47.614;19.684;2022-07-17T06:09:01;101140.13;;;20.19;37.47
45927;BME280;31639;47.614;19.684;2022-07-17T06:14:02;101141.66;;;20.62;37.12
45927;BME280;31639;47.614;19.684;2022-07-17T06:19:02;101138.63;;;20.94;36.20
45927;BME280;31639;47.614;19.684;2022-07-17T06:24:03;101143.84;;;21.20;35.47
45927;BME280;31639;47.614;19.684;2022-07-17T06:29:03;101145.44;;;21.21;34.42
45927;BME280;31639;47.614;19.684;2022-07-17T06:34:04;101145.44;;;21.21;34.32
45927;BME280;31639;47.614;19.684;2022-07-17T06:39:04;101157.13;;;21.46;34.14
45927;BME280;31639;47.614;19.684;2022-07-17T06:44:04;101152.19;;;21.63;33.23
45927;BME280;31639;47.614;19.684;2022-07-17T06:49:05;101158.28;;;21.74;33.22
45927;BME280;31639;47.614;19.684;2022-07-17T06:54:06;101159.22;;;22.23;32.36
45927;BME280;31639;47.614;19.684;2022-07-17T06:59:06;101163.13;;;22.36;32.27
45927;BME280;31639;47.614;19.684;2022-07-17T07:04:07;101147.41;;;22.49;31.42
45927;BME280;31639;47.614;19.684;2022-07-17T07:09:07;101156.97;;;22.60;31.31
45927;BME280;31639;47.614;19.684;2022-07-17T07:14:08;101153.53;;;22.79;30.56
45927;BME280;31639;47.614;19.684;2022-07-17T07:19:08;101152.66;;;23.27;30.62
45927;BME280;31639;47.614;19.684;2022-07-17T07:24:09;101159.94;;;23.79;29.65
45927;BME280;31639;47.614;19.684;2022-07-17T07:29:09;101162.50;;;23.89;29.22
45927;BME280;31639;47.614;19.684;2022-07-17T07:34:10;101150.09;;;24.49;28.88
45927;BME280;31639;47.614;19.684;2022-07-17T07:39:10;101156.59;;;24.62;28.31
45927;BME280;31639;47.614;19.684;2022-07-17T07:44:11;101154.22;;;24.74;27.57
45927;BME280;31639;47.614;19.684;2022-07-17T07:49:11;101160.59;;;24.92;27.48
45927;BME280;31639;47.614;19.684;2022-07-17T07:54:12;101154.13;;;24.79;26.68
45927;BME280;31639;47.614;19.684;2022-07-17T07:59:12;101154.22;;;24.74;26.97
45927;BME280;31639;47.614;19.684;2022-07-17T08:04:12;101166.78;;;24.65;26.84
45927;BME280;31639;47.614;19.684;2022-07-17T08:09:13;101164.03;;;24.70;26.63
45927;BME280;31639;47.614;19.684;2022-07-17T08:14:13;101158.50;;;24.89;25.78
45927;BME280;31639;47.614;19.684;2022-07-17T08:19:14;101153.94;;;25.13;25.65
45927;BME280;31639;47.614;19.684;2022-07-17T08:24:14;101159.66;;;25.48;24.85
45927;BME280;31639;47.614;19.684;2022-07-17T08:29:16;101170.41;;;26.07;24.14
45927;BME280;31639;47.614;19.684;2022-07-17T08:34:16;101163.69;;;26.36;23.62
45927;BME280;31639;47.614;19.684;2022-07-17T08:39:17;101160.03;;;26.81;23.49
45927;BME280;31639;47.614;19.684;2022-07-17T08:44:17;101164.03;;;26.84;22.62
45927;BME280;31639;47.614;19.684;2022-07-17T08:49:20;101161.03;;;27.12;22.34
45927;BME280;31639;47.614;19.684;2022-07-17T08:54:22;101152.91;;;27.29;22.00
45927;BME280;31639;47.614;19.684;2022-07-17T08:59:23;101150.19;;;27.56;21.60
45927;BME280;31639;47.614;19.684;2022-07-17T09:04:23;101158.94;;;27.70;20.93
45927;BME280;31639;47.614;19.684;2022-07-17T09:09:24;101160.16;;;28.47;20.23
45927;BME280;31639;47.614;19.684;2022-07-17T09:14:39;101153.47;;;28.44;19.76
45927;BME280;31639;47.614;19.684;2022-07-17T09:19:42;101145.25;;;28.83;19.22
45927;BME280;31639;47.614;19.684;2022-07-17T09:24:48;101149.94;;;29.58;19.16
45927;BME280;31639;47.614;19.684;2022-07-17T09:30:01;101155.66;;;29.90;19.09
45927;BME280;31639;47.614;19.684;2022-07-17T09:35:04;101151.34;;;29.77;18.59
45927;BME280;31639;47.614;19.684;2022-07-17T09:40:10;101141.50;;;29.39;18.67
45927;BME280;31639;47.614;19.684;2022-07-17T09:45:33;101137.50;;;29.70;19.03
45927;BME280;31639;47.614;19.684;2022-07-17T09:50:34;101129.38;;;29.82;18.84
45927;BME280;31639;47.614;19.684;2022-07-17T09:55:37;101128.34;;;29.74;18.19
45927;BME280;31639;47.614;19.684;2022-07-17T10:00:38;101116.59;;;29.49;18.09
45927;BME280;31639;47.614;19.684;2022-07-17T10:05:39;101117.09;;;29.64;18.90
45927;BME280;31639;47.614;19.684;2022-07-17T10:10:40;101115.34;;;30.55;17.93
45927;BME280;31639;47.614;19.684;2022-07-17T10:15:40;101125.69;;;30.12;18.13
45927;BME280;31639;47.614;19.684;2022-07-17T10:20:41;101125.75;;;29.90;17.67
45927;BME280;31639;47.614;19.684;2022-07-17T10:25:42;101114.06;;;30.52;17.85
45927;BME280;31639;47.614;19.684;2022-07-17T10:30:43;101117.44;;;31.43;17.37
45927;BME280;31639;47.614;19.684;2022-07-17T10:35:48;101117.63;;;30.93;16.97
45927;BME280;31639;47.614;19.684;2022-07-17T10:41:01;101124.13;;;30.89;17.10
45927;BME280;31639;47.614;19.684;2022-07-17T10:46:02;101118.09;;;31.68;16.78
45927;BME280;31639;47.614;19.684;2022-07-17T10:51:03;101114.88;;;32.27;16.23
45927;BME280;31639;47.614;19.684;2022-07-17T10:56:08;101100.69;;;32.57;15.96
45927;BME280;31639;47.614;19.684;2022-07-17T11:01:19;101098.91;;;31.49;16.74
45927;BME280;31639;47.614;19.684;2022-07-17T11:06:20;101108.19;;;31.32;16.71
45927;BME280;31639;47.614;19.684;2022-07-17T11:11:45;101091.16;;;31.51;16.21
45927;BME280;31639;47.614;19.684;2022-07-17T11:16:52;101090.59;;;31.74;15.82
45927;BME280;31639;47.614;19.684;2022-07-17T11:21:53;101080.00;;;32.20;15.95
45927;BME280;31639;47.614;19.684;2022-07-17T11:26:54;101091.13;;;32.47;15.87
45927;BME280;31639;47.614;19.684;2022-07-17T11:31:58;101061.59;;;32.01;15.69
45927;BME280;31639;47.614;19.684;2022-07-17T11:37:04;101053.78;;;31.67;16.29
45927;BME280;31639;47.614;19.684;2022-07-17T11:42:08;101054.13;;;31.98;15.60
45927;BME280;31639;47.614;19.684;2022-07-17T11:47:10;101050.16;;;32.11;15.41
45927;BME280;31639;47.614;19.684;2022-07-17T11:52:13;101055.19;;;32.65;14.71
45927;BME280;31639;47.614;19.684;2022-07-17T11:57:14;101046.88;;;32.77;15.60
45927;BME280;31639;47.614;19.684;2022-07-17T12:02:20;101046.28;;;33.77;14.34
45927;BME280;31639;47.614;19.684;2022-07-17T12:07:24;101038.63;;;38.62;11.70
45927;BME280;31639;47.614;19.684;2022-07-17T12:12:26;101041.50;;;40.65;9.91
45927;BME280;31639;47.614;19.684;2022-07-17T12:17:40;101034.28;;;41.22;9.75
45927;BME280;31639;47.614;19.684;2022-07-17T12:22:47;101030.63;;;41.73;9.11
45927;BME280;31639;47.614;19.684;2022-07-17T12:27:48;101032.41;;;42.23;8.35
45927;BME280;31639;47.614;19.684;2022-07-17T12:32:49;101022.72;;;41.95;8.25
45927;BME280;31639;47.614;19.684;2022-07-17T12:37:49;101013.34;;;42.46;8.46
45927;BME280;31639;47.614;19.684;2022-07-17T12:42:50;101008.63;;;44.27;8.21
45927;BME280;31639;47.614;19.684;2022-07-17T12:47:50;101010.41;;;44.85;7.86
45927;BME280;31639;47.614;19.684;2022-07-17T12:52:51;101006.78;;;43.81;7.69
45927;BME280;31639;47.614;19.684;2022-07-17T12:57:51;101004.88;;;42.86;7.95
45927;BME280;31639;47.614;19.684;2022-07-17T13:02:51;100998.03;;;42.91;8.08
45927;BME280;31639;47.614;19.684;2022-07-17T13:07:52;100993.31;;;43.80;7.45
45927;BME280;31639;47.614;19.684;2022-07-17T13:12:52;100989.63;;;43.40;7.73
45927;BME280;31639;47.614;19.684;2022-07-17T13:17:53;100993.47;;;43.30;8.02
45927;BME280;31639;47.614;19.684;2022-07-17T13:22:53;100987.00;;;43.50;7.65
45927;BME280;31639;47.614;19.684;2022-07-17T13:27:54;100980.63;;;43.36;7.77
45927;BME280;31639;47.614;19.684;2022-07-17T13:32:54;100979.00;;;42.56;8.00
45927;BME280;31639;47.614;19.684;2022-07-17T13:37:55;100978.59;;;42.91;7.63
45927;BME280;31639;47.614;19.684;2022-07-17T13:42:57;100987.31;;;42.03;7.59
45927;BME280;31639;47.614;19.684;2022-07-17T13:47:59;100973.25;;;41.73;8.70
45927;BME280;31639;47.614;19.684;2022-07-17T13:53:00;100972.84;;;42.65;8.35
45927;BME280;31639;47.614;19.684;2022-07-17T13:58:01;100964.47;;;44.03;7.38
45927;BME280;31639;47.614;19.684;2022-07-17T14:03:03;100964.59;;;44.51;6.87
45927;BME280;31639;47.614;19.684;2022-07-17T14:08:04;100953.75;;;45.14;7.25
45927;BME280;31639;47.614;19.684;2022-07-17T14:13:04;100963.69;;;45.82;6.34
45927;BME280;31639;47.614;19.684;2022-07-17T14:18:05;100951.09;;;43.42;7.26
45927;BME280;31639;47.614;19.684;2022-07-17T14:23:05;100950.28;;;43.12;7.26
45927;BME280;31639;47.614;19.684;2022-07-17T14:28:06;100951.28;;;42.56;7.46
45927;BME280;31639;47.614;19.684;2022-07-17T14:33:06;100941.94;;;43.29;7.18
45927;BME280;31639;47.614;19.684;2022-07-17T14:38:07;100949.25;;;44.08;6.86
45927;BME280;31639;47.614;19.684;2022-07-17T14:43:07;100949.41;;;43.32;7.18
45927;BME280;31639;47.614;19.684;2022-07-17T14:48:08;100946.63;;;43.32;7.38
45927;BME280;31639;47.614;19.684;2022-07-17T14:53:08;100944.38;;;43.27;6.98
45927;BME280;31639;47.614;19.684;2022-07-17T14:58:09;100924.00;;;44.15;6.79
45927;BME280;31639;47.614;19.684;2022-07-17T15:03:09;100934.16;;;43.24;6.98
45927;BME280;31639;47.614;19.684;2022-07-17T15:08:10;100925.19;;;40.76;8.44
45927;BME280;31639;47.614;19.684;2022-07-17T15:13:10;100931.66;;;38.46;8.87
45927;BME280;31639;47.614;19.684;2022-07-17T15:18:11;100931.16;;;37.73;9.60
45927;BME280;31639;47.614;19.684;2022-07-17T15:23:11;100925.34;;;37.50;9.45
45927;BME280;31639;47.614;19.684;2022-07-17T15:28:12;100918.97;;;36.22;10.19
45927;BME280;31639;47.614;19.684;2022-07-17T15:33:12;100909.69;;;35.64;10.91
45927;BME280;31639;47.614;19.684;2022-07-17T15:38:12;100913.69;;;34.69;11.71
45927;BME280;31639;47.614;19.684;2022-07-17T15:43:13;100909.03;;;34.73;11.70
45927;BME280;31639;47.614;19.684;2022-07-17T15:48:13;100909.56;;;34.15;11.91
45927;BME280;31639;47.614;19.684;2022-07-17T15:53:14;100900.28;;;33.62;12.16
45927;BME280;31639;47.614;19.684;2022-07-17T15:58:14;100898.38;;;33.12;12.26
45927;BME280;31639;47.614;19.684;2022-07-17T16:03:14;100897.97;;;31.69;12.99
45927;BME280;31639;47.614;19.684;2022-07-17T16:08:15;100903.09;;;30.58;13.58
45927;BME280;31639;47.614;19.684;2022-07-17T16:13:15;100907.28;;;30.27;14.42
45927;BME280;31639;47.614;19.684;2022-07-17T16:18:16;100910.88;;;31.36;14.00
45927;BME280;31639;47.614;19.684;2022-07-17T16:23:16;100913.31;;;32.13;13.51
45927;BME280;31639;47.614;19.684;2022-07-17T16:28:18;100917.34;;;32.19;13.29
45927;BME280;31639;47.614;19.684;2022-07-17T16:33:19;100911.16;;;31.67;14.51
45927;BME280;31639;47.614;19.684;2022-07-17T16:38:19;100914.34;;;30.57;15.79
45927;BME280;31639;47.614;19.684;2022-07-17T16:43:19;100914.94;;;30.09;16.41
45927;BME280;31639;47.614;19.684;2022-07-17T16:48:20;100912.50;;;29.54;16.84
45927;BME280;31639;47.614;19.684;2022-07-17T16:53:21;100921.63;;;29.25;17.20
45927;BME280;31639;47.614;19.684;2022-07-17T16:58:21;100914.72;;;29.02;17.66
45927;BME280;31639;47.614;19.684;2022-07-17T17:03:22;100917.09;;;28.70;18.03
45927;BME280;31639;47.614;19.684;2022-07-17T17:08:22;100909.75;;;28.37;18.34
45927;BME280;31639;47.614;19.684;2022-07-17T17:13:23;100903.75;;;28.10;18.35
45927;BME280;31639;47.614;19.684;2022-07-17T17:18:23;100912.09;;;27.75;18.68
45927;BME280;31639;47.614;19.684;2022-07-17T17:23:24;100901.75;;;27.39;19.39
45927;BME280;31639;47.614;19.684;2022-07-17T17:28:24;100902.00;;;27.07;19.66
45927;BME280;31639;47.614;19.684;2022-07-17T17:33:25;100918.00;;;26.65;19.84
45927;BME280;31639;47.614;19.684;2022-07-17T17:38:25;100917.06;;;26.43;19.94
45927;BME280;31639;47.614;19.684;2022-07-17T17:43:26;100914.97;;;26.22;20.52
45927;BME280;31639;47.614;19.684;2022-07-17T17:48:28;100925.00;;;26.13;20.27
45927;BME280;31639;47.614;19.684;2022-07-17T17:53:28;100930.22;;;26.00;20.44
45927;BME280;31639;47.614;19.684;2022-07-17T17:58:29;100931.16;;;25.96;20.73
45927;BME280;31639;47.614;19.684;2022-07-17T18:03:29;100935.75;;;25.87;21.00
45927;BME280;31639;47.614;19.684;2022-07-17T18:08:30;100940.16;;;25.74;21.43
45927;BME280;31639;47.614;19.684;2022-07-17T18:13:30;100936.28;;;25.57;21.81
45927;BME280;31639;47.614;19.684;2022-07-17T18:18:31;100936.03;;;25.36;22.05
45927;BME280;31639;47.614;19.684;2022-07-17T18:23:32;100942.25;;;25.14;22.20
45927;BME280;31639;47.614;19.684;2022-07-17T18:28:33;100938.97;;;24.94;22.51
45927;BME280;31639;47.614;19.684;2022-07-17T18:33:34;100951.75;;;24.65;22.83
45927;BME280;31639;47.614;19.684;2022-07-17T18:38:35;100955.75;;;24.31;23.12
45927;BME280;31639;47.614;19.684;2022-07-17T18:43:36;100964.19;;;24.02;23.85
45927;BME280;31639;47.614;19.684;2022-07-17T18:48:36;100972.06;;;23.70;24.14
45927;BME280;31639;47.614;19.684;2022-07-17T18:53:37;100970.53;;;23.36;24.65
45927;BME280;31639;47.614;19.684;2022-07-17T18:58:38;100976.75;;;22.98;25.10
45927;BME280;31639;47.614;19.684;2022-07-17T19:03:38;100986.59;;;22.51;25.34
45927;BME280;31639;47.614;19.684;2022-07-17T19:08:38;101007.38;;;21.97;26.44
45927;BME280;31639;47.614;19.684;2022-07-17T19:13:39;101019.25;;;21.66;26.99
45927;BME280;31639;47.614;19.684;2022-07-17T19:18:39;101023.38;;;21.53;27.52
45927;BME280;31639;47.614;19.684;2022-07-17T19:23:41;101027.78;;;21.39;28.03
45927;BME280;31639;47.614;19.684;2022-07-17T19:28:41;101029.84;;;21.12;28.16
45927;BME280;31639;47.614;19.684;2022-07-17T19:33:42;101040.81;;;20.76;28.45
45927;BME280;31639;47.614;19.684;2022-07-17T19:38:42;101041.47;;;20.47;29.02
45927;BME280;31639;47.614;19.684;2022-07-17T19:43:43;101051.09;;;20.53;29.12
45927;BME280;31639;47.614;19.684;2022-07-17T19:48:44;101054.47;;;20.80;29.08
45927;BME280;31639;47.614;19.684;2022-07-17T19:53:44;101057.94;;;20.85;28.75
45927;BME280;31639;47.614;19.684;2022-07-17T19:58:47;101062.69;;;20.99;28.65
45927;BME280;31639;47.614;19.684;2022-07-17T20:03:49;101062.56;;;21.20;28.28
45927;BME280;31639;47.614;19.684;2022-07-17T20:08:50;101065.13;;;21.35;28.22
45927;BME280;31639;47.614;19.684;2022-07-17T20:13:50;101071.81;;;20.98;28.49
45927;BME280;31639;47.614;19.684;2022-07-17T20:18:54;101074.75;;;20.31;29.12
45927;BME280;31639;47.614;19.684;2022-07-17T20:23:54;101079.88;;;20.11;29.24
45927;BME280;31639;47.614;19.684;2022-07-17T20:28:55;101087.66;;;20.08;29.48
45927;BME280;31639;47.614;19.684;2022-07-17T20:33:56;101093.00;;;20.13;29.69
45927;BME280;31639;47.614;19.684;2022-07-17T20:38:56;101091.66;;;20.21;29.45
45927;BME280;31639;47.614;19.684;2022-07-17T20:43:56;101093.31;;;20.01;29.71
45927;BME280;31639;47.614;19.684;2022-07-17T20:48:57;101087.94;;;19.75;29.94
45927;BME280;31639;47.614;19.684;2022-07-17T20:53:57;101101.03;;;19.66;30.00
45927;BME280;31639;47.614;19.684;2022-07-17T20:58:58;101105.34;;;19.67;30.13
45927;BME280;31639;47.614;19.684;2022-07-17T21:03:58;101107.47;;;19.71;30.17
45927;BME280;31639;47.614;19.684;2022-07-17T21:08:59;101117.13;;;19.61;30.57
45927;BME280;31639;47.614;19.684;2022-07-17T21:13:59;101115.75;;;19.43;30.64
45927;BME280;31639;47.614;19.684;2022-07-17T21:19:00;101119.50;;;19.32;31.16
45927;BME280;31639;47.614;19.684;2022-07-17T21:24:00;101124.56;;;19.33;31.26
45927;BME280;31639;47.614;19.684;2022-07-17T21:29:00;101114.69;;;19.39;31.09
45927;BME280;31639;47.614;19.684;2022-07-17T21:34:01;101123.50;;;19.45;31.01
45927;BME280;31639;47.614;19.684;2022-07-17T21:39:02;101132.63;;;19.44;31.09
45927;BME280;31639;47.614;19.684;2022-07-17T21:44:02;101148.69;;;19.44;31.07
45927;BME280;31639;47.614;19.684;2022-07-17T21:49:04;101148.66;;;19.39;31.06
45927;BME280;31639;47.614;19.684;2022-07-17T21:54:05;101148.16;;;19.42;31.08
45927;BME280;31639;47.614;19.684;2022-07-17T21:59:06;101149.47;;;19.44;31.23
45927;BME280;31639;47.614;19.684;2022-07-17T22:04:07;101159.34;;;19.33;31.44
45927;BME280;31639;47.614;19.684;2022-07-17T22:09:08;101164.69;;;19.28;31.70
45927;BME280;31639;47.614;19.684;2022-07-17T22:14:09;101157.19;;;19.20;32.10
45927;BME280;31639;47.614;19.684;2022-07-17T22:19:10;101169.44;;;19.11;32.36
45927;BME280;31639;47.614;19.684;2022-07-17T22:24:10;101175.56;;;19.01;32.73
45927;BME280;31639;47.614;19.684;2022-07-17T22:29:11;101171.72;;;18.86;33.39
45927;BME280;31639;47.614;19.684;2022-07-17T22:34:11;101173.81;;;18.74;34.05
45927;BME280;31639;47.614;19.684;2022-07-17T22:39:12;101175.66;;;18.68;34.49
45927;BME280;31639;47.614;19.684;2022-07-17T22:44:12;101179.91;;;18.64;34.63
45927;BME280;31639;47.614;19.684;2022-07-17T22:49:13;101179.91;;;18.64;35.81
45927;BME280;31639;47.614;19.684;2022-07-17T22:54:13;101186.59;;;18.61;36.39
45927;BME280;31639;47.614;19.684;2022-07-17T22:59:14;101180.38;;;18.51;36.47
45927;BME280;31639;47.614;19.684;2022-07-17T23:04:15;101176.00;;;18.39;36.79
45927;BME280;31639;47.614;19.684;2022-07-17T23:09:15;101173.56;;;18.33;37.45
45927;BME280;31639;47.614;19.684;2022-07-17T23:14:16;101174.34;;;18.28;37.65
45927;BME280;31639;47.614;19.684;2022-07-17T23:19:17;101178.34;;;18.25;38.06
45927;BME280;31639;47.614;19.684;2022-07-17T23:24:17;101176.13;;;18.17;38.05
45927;BME280;31639;47.614;19.684;2022-07-17T23:29:17;101173.16;;;18.13;38.37
45927;BME280;31639;47.614;19.684;2022-07-17T23:34:18;101169.09;;;18.06;38.60
45927;BME280;31639;47.614;19.684;2022-07-17T23:39:18;101172.50;;;18.01;38.85
45927;BME280;31639;47.614;19.684;2022-07-17T23:44:19;101182.28;;;17.90;39.10
45927;BME280;31639;47.614;19.684;2022-07-17T23:49:19;101181.97;;;17.86;39.53
45927;BME280;31639;47.614;19.684;2022-07-17T23:54:19;101184.59;;;17.81;39.50
45927;BME280;31639;47.614;19.684;2022-07-17T23:59:20;101184.56;;;17.76;40.31
